sensor_id;sensor_type;location;lat;lon;timestamp;pressure;altitude;pressure_sealevel;temperature;humidity
55301;BME280;58302;51.446;-2.000;2022-08-19T00:01:24;100422.53;;;18.06;100.00
55301;BME280;58302;51.446;-2.000;2022-08-19T00:03:50;100416.25;;;18.05;100.00
55301;BME280;58302;51.446;-2.000;2022-08-19T00:06:17;100417.84;;;18.06;100.00
55301;BME280;58302;51.446;-2.000;2022-08-19T00:08:43;100417.84;;;18.06;100.00
55301;BME280;58302;51.446;-2.000;2022-08-19T00:11:10;100415.63;;;18.08;100.00
55301;BME280;58302;51.446;-2.000;2022-08-19T00:13:36;100415.09;;;18.06;100.00
55301;BME280;58302;51.446;-2.000;2022-08-19T00:16:05;100413.97;;;18.07;100.00
55301;BME280;58302;51.446;-2.000;2022-08-19T00:18:33;100404.63;;;18.08;100.00
55301;BME280;58302;51.446;-2.000;2022-08-19T00:20:59;100398.31;;;18.08;100.00
55301;BME280;58302;51.446;-2.000;2022-08-19T00:23:26;100407.38;;;18.08;100.00
55301;BME280;58302;51.446;-2.000;2022-08-19T00:25:51;100403.28;;;18.06;100.00
55301;BME280;58302;51.446;-2.000;2022-08-19T00:28:18;100404.75;;;18.03;100.00
55301;BME280;58302;51.446;-2.000;2022-08-19T00:30:44;100391.63;;;18.00;100.00
55301;BME280;58302;51.446;-2.000;2022-08-19T00:33:10;100399.38;;;17.98;100.00
55301;BME280;58302;51.446;-2.000;2022-08-19T00:35:36;100396.97;;;17.97;100.00
55301;BME280;58302;51.446;-2.000;2022-08-19T00:38:04;100394.22;;;17.97;100.00
55301;BME280;58302;51.446;-2.000;2022-08-19T00:40:32;100394.50;;;17.95;100.00
55301;BME280;58302;51.446;-2.000;2022-08-19T00:42:59;100400.00;;;17.95;100.00
55301;BME280;58302;51.446;-2.000;2022-08-19T00:45:27;100401.63;;;17.96;100.00
55301;BME280;58302;51.446;-2.000;2022-08-19T00:47:53;100396.13;;;17.96;100.00
55301;BME280;58302;51.446;-2.000;2022-08-19T00:50:20;100405.22;;;17.97;100.00
55301;BME280;58302;51.446;-2.000;2022-08-19T00:52:49;100404.56;;;18.00;100.00
55301;BME280;58302;51.446;-2.000;2022-08-19T00:55:19;100407.78;;;18.02;100.00
55301;BME280;58302;51.446;-2.000;2022-08-19T00:57:51;100398.94;;;18.05;100.00
55301;BME280;58302;51.446;-2.000;2022-08-19T01:00:20;100406.03;;;18.06;100.00
55301;BME280;58302;51.446;-2.000;2022-08-19T01:02:47;100406.19;;;18.01;100.00
55301;BME280;58302;51.446;-2.000;2022-08-19T01:05:16;100397.91;;;17.92;100.00
55301;BME280;58302;51.446;-2.000;2022-08-19T01:07:44;100400.78;;;17.87;100.00
55301;BME280;58302;51.446;-2.000;2022-08-19T01:10:14;100413.66;;;17.78;100.00
55301;BME280;58302;51.446;-2.000;2022-08-19T01:12:41;100410.53;;;17.71;100.00
55301;BME280;58302;51.446;-2.000;2022-08-19T01:15:10;100410.31;;;17.67;100.00
55301;BME280;58302;51.446;-2.000;2022-08-19T01:17:38;100410.13;;;17.63;100.00
55301;BME280;58302;51.446;-2.000;2022-08-19T01:20:07;100419.50;;;17.62;100.00
55301;BME280;58302;51.446;-2.000;2022-08-19T01:25:09;100402.53;;;17.60;100.00
55301;BME280;58302;51.446;-2.000;2022-08-19T01:27:41;100408.63;;;17.57;100.00
55301;BME280;58302;51.446;-2.000;2022-08-19T01:30:10;100408.75;;;17.52;100.00
55301;BME280;58302;51.446;-2.000;2022-08-19T01:32:36;100405.16;;;17.43;100.00
55301;BME280;58302;51.446;-2.000;2022-08-19T01:35:03;100407.91;;;17.43;100.00
55301;BME280;58302;51.446;-2.000;2022-08-19T01:37:40;100410.66;;;17.43;100.00
55301;BME280;58302;51.446;-2.000;2022-08-19T01:40:07;100413.09;;;17.45;100.00
55301;BME280;58302;51.446;-2.000;2022-08-19T01:42:33;100422.00;;;17.50;100.00
55301;BME280;58302;51.446;-2.000;2022-08-19T01:45:00;100416.53;;;17.50;100.00
55301;BME280;58302;51.446;-2.000;2022-08-19T01:47:26;100416.16;;;17.43;100.00
55301;BME280;58302;51.446;-2.000;2022-08-19T01:49:52;100416.41;;;17.33;100.00
55301;BME280;58302;51.446;-2.000;2022-08-19T01:52:18;100420.06;;;17.28;100.00
55301;BME280;58302;51.446;-2.000;2022-08-19T01:54:44;100417.31;;;17.28;100.00
55301;BME280;58302;51.446;-2.000;2022-08-19T01:57:12;100420.56;;;17.30;100.00
55301;BME280;58302;51.446;-2.000;2022-08-19T01:59:41;100423.00;;;17.32;100.00
55301;BME280;58302;51.446;-2.000;2022-08-19T02:02:11;100424.63;;;17.33;100.00
55301;BME280;58302;51.446;-2.000;2022-08-19T02:04:38;100425.94;;;17.35;100.00
55301;BME280;58302;51.446;-2.000;2022-08-19T02:07:05;100432.25;;;17.36;100.00
55301;BME280;58302;51.446;-2.000;2022-08-19T02:09:32;100433.13;;;17.45;100.00
55301;BME280;58302;51.446;-2.000;2022-08-19T02:11:58;100421.88;;;17.33;100.00
55301;BME280;58302;51.446;-2.000;2022-08-19T02:14:24;100425.34;;;17.25;100.00
55301;BME280;58302;51.446;-2.000;2022-08-19T02:16:50;100427.25;;;17.16;100.00
55301;BME280;58302;51.446;-2.000;2022-08-19T02:19:16;100426.97;;;17.03;100.00
55301;BME280;58302;51.446;-2.000;2022-08-19T02:21:42;100428.00;;;16.94;100.00
55301;BME280;58302;51.446;-2.000;2022-08-19T02:24:09;100432.91;;;16.83;100.00
55301;BME280;58302;51.446;-2.000;2022-08-19T02:26:35;100423.84;;;16.69;100.00
55301;BME280;58302;51.446;-2.000;2022-08-19T02:29:01;100430.56;;;16.63;100.00
55301;BME280;58302;51.446;-2.000;2022-08-19T02:31:27;100444.59;;;16.61;100.00
55301;BME280;58302;51.446;-2.000;2022-08-19T02:33:54;100447.00;;;16.63;100.00
55301;BME280;58302;51.446;-2.000;2022-08-19T02:36:22;100447.63;;;16.59;100.00
55301;BME280;58302;51.446;-2.000;2022-08-19T02:38:48;100448.25;;;16.56;100.00
55301;BME280;58302;51.446;-2.000;2022-08-19T02:41:17;100450.50;;;16.54;100.00
55301;BME280;58302;51.446;-2.000;2022-08-19T02:43:44;100451.09;;;16.51;100.00
55301;BME280;58302;51.446;-2.000;2022-08-19T02:46:22;100453.13;;;16.46;100.00
55301;BME280;58302;51.446;-2.000;2022-08-19T02:48:50;100453.94;;;16.32;100.00
55301;BME280;58302;51.446;-2.000;2022-08-19T02:51:18;100448.81;;;16.26;100.00
55301;BME280;58302;51.446;-2.000;2022-08-19T02:53:45;100452.78;;;16.20;100.00
55301;BME280;58302;51.446;-2.000;2022-08-19T02:56:11;100454.91;;;16.09;100.00
55301;BME280;58302;51.446;-2.000;2022-08-19T02:58:37;100449.81;;;16.02;100.00
55301;BME280;58302;51.446;-2.000;2022-08-19T03:01:03;100446.34;;;15.97;100.00
55301;BME280;58302;51.446;-2.000;2022-08-19T03:03:29;100453.84;;;15.91;100.00
55301;BME280;58302;51.446;-2.000;2022-08-19T03:06:11;100452.44;;;15.94;100.00
55301;BME280;58302;51.446;-2.000;2022-08-19T03:08:40;100446.53;;;15.87;100.00
55301;BME280;58302;51.446;-2.000;2022-08-19T03:11:06;100452.63;;;15.84;100.00
55301;BME280;58302;51.446;-2.000;2022-08-19T03:13:32;100453.44;;;15.84;100.00
55301;BME280;58302;51.446;-2.000;2022-08-19T03:15:58;100461.13;;;15.82;100.00
55301;BME280;58302;51.446;-2.000;2022-08-19T03:18:24;100449.53;;;15.71;100.00
55301;BME280;58302;51.446;-2.000;2022-08-19T03:20:52;100462.78;;;15.64;100.00
55301;BME280;58302;51.446;-2.000;2022-08-19T03:23:22;100464.94;;;15.67;100.00
55301;BME280;58302;51.446;-2.000;2022-08-19T03:25:50;100466.34;;;15.65;100.00
55301;BME280;58302;51.446;-2.000;2022-08-19T03:28:16;100459.78;;;15.66;100.00
55301;BME280;58302;51.446;-2.000;2022-08-19T03:30:53;100457.31;;;15.64;100.00
55301;BME280;58302;51.446;-2.000;2022-08-19T03:33:21;100471.47;;;15.71;100.00
55301;BME280;58302;51.446;-2.000;2022-08-19T03:38:31;100463.28;;;15.85;100.00
55301;BME280;58302;51.446;-2.000;2022-08-19T03:41:02;100458.81;;;15.89;100.00
55301;BME280;58302;51.446;-2.000;2022-08-19T03:43:28;100468.66;;;15.90;100.00
55301;BME280;58302;51.446;-2.000;2022-08-19T03:46:04;100459.63;;;15.90;100.00
55301;BME280;58302;51.446;-2.000;2022-08-19T03:48:32;100465.72;;;15.87;100.00
55301;BME280;58302;51.446;-2.000;2022-08-19T03:50:58;100468.53;;;15.81;100.00
55301;BME280;58302;51.446;-2.000;2022-08-19T03:53:27;100476.84;;;15.76;100.00
55301;BME280;58302;51.446;-2.000;2022-08-19T03:55:54;100475.91;;;15.67;100.00
55301;BME280;58302;51.446;-2.000;2022-08-19T03:58:22;100470.78;;;15.61;100.00
55301;BME280;58302;51.446;-2.000;2022-08-19T04:00:48;100466.69;;;15.58;100.00
55301;BME280;58302;51.446;-2.000;2022-08-19T04:03:14;100479.59;;;15.58;100.00
55301;BME280;58302;51.446;-2.000;2022-08-19T04:05:40;100476.09;;;15.71;100.00
55301;BME280;58302;51.446;-2.000;2022-08-19T04:08:06;100476.63;;;15.73;100.00
55301;BME280;58302;51.446;-2.000;2022-08-19T04:10:36;100469.81;;;15.70;100.00
55301;BME280;58302;51.446;-2.000;2022-08-19T04:13:04;100477.84;;;15.67;100.00
55301;BME280;58302;51.446;-2.000;2022-08-19T04:15:32;100480.63;;;15.62;100.00
55301;BME280;58302;51.446;-2.000;2022-08-19T04:18:05;100492.13;;;15.64;100.00
55301;BME280;58302;51.446;-2.000;2022-08-19T04:20:45;100479.81;;;15.61;100.00
55301;BME280;58302;51.446;-2.000;2022-08-19T04:23:13;100491.84;;;15.60;100.00
55301;BME280;58302;51.446;-2.000;2022-08-19T04:25:42;100491.66;;;15.57;100.00
55301;BME280;58302;51.446;-2.000;2022-08-19T04:28:10;100500.69;;;15.57;100.00
55301;BME280;58302;51.446;-2.000;2022-08-19T04:30:45;100503.13;;;15.59;100.00
55301;BME280;58302;51.446;-2.000;2022-08-19T04:33:12;100503.13;;;15.59;100.00
55301;BME280;58302;51.446;-2.000;2022-08-19T04:35:44;100498.19;;;15.61;100.00
55301;BME280;58302;51.446;-2.000;2022-08-19T04:38:11;100492.47;;;15.57;100.00
55301;BME280;58302;51.446;-2.000;2022-08-19T04:40:42;100494.97;;;15.53;100.00
55301;BME280;58302;51.446;-2.000;2022-08-19T04:43:27;100493.97;;;15.49;100.00
55301;BME280;58302;51.446;-2.000;2022-08-19T04:45:54;100499.53;;;15.44;100.00
55301;BME280;58302;51.446;-2.000;2022-08-19T04:48:21;100505.06;;;15.39;100.00
55301;BME280;58302;51.446;-2.000;2022-08-19T04:50:56;100503.34;;;15.43;100.00
55301;BME280;58302;51.446;-2.000;2022-08-19T04:53:31;100502.84;;;15.41;100.00
55301;BME280;58302;51.446;-2.000;2022-08-19T04:55:59;100503.72;;;15.37;100.00
55301;BME280;58302;51.446;-2.000;2022-08-19T04:58:29;100518.91;;;15.29;100.00
55301;BME280;58302;51.446;-2.000;2022-08-19T05:00:55;100509.56;;;15.30;100.00
55301;BME280;58302;51.446;-2.000;2022-08-19T05:03:21;100511.19;;;15.31;100.00
55301;BME280;58302;51.446;-2.000;2022-08-19T05:05:47;100514.47;;;15.33;100.00
55301;BME280;58302;51.446;-2.000;2022-08-19T05:08:16;100515.47;;;15.37;100.00
55301;BME280;58302;51.446;-2.000;2022-08-19T05:10:50;100515.72;;;15.41;100.00
55301;BME280;58302;51.446;-2.000;2022-08-19T05:13:18;100523.88;;;15.46;100.00
55301;BME280;58302;51.446;-2.000;2022-08-19T05:15:54;100521.63;;;15.48;100.00
55301;BME280;58302;51.446;-2.000;2022-08-19T05:18:20;100537.19;;;15.52;100.00
55301;BME280;58302;51.446;-2.000;2022-08-19T05:21:07;100526.72;;;15.54;100.00
55301;BME280;58302;51.446;-2.000;2022-08-19T05:23:52;100525.91;;;15.54;100.00
55301;BME280;58302;51.446;-2.000;2022-08-19T05:26:18;100531.19;;;15.50;100.00
55301;BME280;58302;51.446;-2.000;2022-08-19T05:28:44;100526.28;;;15.47;100.00
55301;BME280;58302;51.446;-2.000;2022-08-19T05:31:10;100528.00;;;15.43;100.00
55301;BME280;58302;51.446;-2.000;2022-08-19T05:33:36;100527.41;;;15.46;100.00
55301;BME280;58302;51.446;-2.000;2022-08-19T05:36:02;100542.22;;;15.45;100.00
55301;BME280;58302;51.446;-2.000;2022-08-19T05:38:30;100544.97;;;15.45;100.00
55301;BME280;58302;51.446;-2.000;2022-08-19T05:40:56;100548.59;;;15.41;100.00
55301;BME280;58302;51.446;-2.000;2022-08-19T05:43:22;100557.38;;;15.38;100.00
55301;BME280;58302;51.446;-2.000;2022-08-19T05:45:48;100564.78;;;15.37;100.00
55301;BME280;58302;51.446;-2.000;2022-08-19T05:48:15;100564.94;;;15.46;100.00
55301;BME280;58302;51.446;-2.000;2022-08-19T05:50:43;100567.91;;;15.49;100.00
55301;BME280;58302;51.446;-2.000;2022-08-19T05:53:10;100570.56;;;15.54;100.00
55301;BME280;58302;51.446;-2.000;2022-08-19T05:55:37;100567.22;;;15.63;100.00
55301;BME280;58302;51.446;-2.000;2022-08-19T05:58:06;100572.91;;;15.66;100.00
55301;BME280;58302;51.446;-2.000;2022-08-19T06:00:36;100573.50;;;15.63;100.00
55301;BME280;58302;51.446;-2.000;2022-08-19T06:03:03;100580.13;;;15.57;100.00
55301;BME280;58302;51.446;-2.000;2022-08-19T06:05:30;100583.69;;;15.58;100.00
55301;BME280;58302;51.446;-2.000;2022-08-19T06:07:56;100587.69;;;15.65;100.00
55301;BME280;58302;51.446;-2.000;2022-08-19T06:10:25;100578.97;;;15.63;100.00
55301;BME280;58302;51.446;-2.000;2022-08-19T06:12:52;100589.41;;;15.61;100.00
55301;BME280;58302;51.446;-2.000;2022-08-19T06:15:18;100586.31;;;15.68;100.00
55301;BME280;58302;51.446;-2.000;2022-08-19T06:17:44;100589.06;;;15.68;100.00
55301;BME280;58302;51.446;-2.000;2022-08-19T06:20:12;100593.56;;;15.77;100.00
55301;BME280;58302;51.446;-2.000;2022-08-19T06:22:41;100590.22;;;15.80;100.00
55301;BME280;58302;51.446;-2.000;2022-08-19T06:25:09;100584.38;;;15.87;100.00
55301;BME280;58302;51.446;-2.000;2022-08-19T06:27:36;100589.28;;;15.90;100.00
55301;BME280;58302;51.446;-2.000;2022-08-19T06:30:03;100594.06;;;15.98;100.00
55301;BME280;58302;51.446;-2.000;2022-08-19T06:32:30;100591.78;;;16.05;100.00
55301;BME280;58302;51.446;-2.000;2022-08-19T06:34:56;100587.09;;;16.06;100.00
55301;BME280;58302;51.446;-2.000;2022-08-19T06:37:22;100599.47;;;16.03;99.60
55301;BME280;58302;51.446;-2.000;2022-08-19T06:39:48;100590.00;;;15.96;100.00
55301;BME280;58302;51.446;-2.000;2022-08-19T06:42:14;100584.84;;;15.94;99.17
55301;BME280;58302;51.446;-2.000;2022-08-19T06:44:47;100597.13;;;15.97;99.80
55301;BME280;58302;51.446;-2.000;2022-08-19T06:47:18;100599.84;;;15.97;97.36
55301;BME280;58302;51.446;-2.000;2022-08-19T06:49:45;100593.19;;;16.03;97.14
55301;BME280;58302;51.446;-2.000;2022-08-19T06:52:12;100600.44;;;16.45;95.01
55301;BME280;58302;51.446;-2.000;2022-08-19T06:54:39;100601.84;;;17.30;87.90
55301;BME280;58302;51.446;-2.000;2022-08-19T06:57:05;100600.13;;;17.98;83.05
55301;BME280;58302;51.446;-2.000;2022-08-19T06:59:32;100596.78;;;18.55;79.34
55301;BME280;58302;51.446;-2.000;2022-08-19T07:02:02;100604.72;;;18.79;75.98
55301;BME280;58302;51.446;-2.000;2022-08-19T07:04:31;100610.16;;;18.92;73.33
55301;BME280;58302;51.446;-2.000;2022-08-19T07:07:00;100607.31;;;19.15;71.57
55301;BME280;58302;51.446;-2.000;2022-08-19T07:09:27;100611.75;;;19.33;69.28
55301;BME280;58302;51.446;-2.000;2022-08-19T07:11:54;100609.50;;;19.35;66.68
55301;BME280;58302;51.446;-2.000;2022-08-19T07:14:26;100620.34;;;19.32;65.69
55301;BME280;58302;51.446;-2.000;2022-08-19T07:16:55;100626.41;;;19.51;62.94
55301;BME280;58302;51.446;-2.000;2022-08-19T07:19:24;100627.75;;;19.62;62.60
55301;BME280;58302;51.446;-2.000;2022-08-19T07:21:51;100636.53;;;19.99;60.73
55301;BME280;58302;51.446;-2.000;2022-08-19T07:24:24;100633.44;;;19.74;61.16
55301;BME280;58302;51.446;-2.000;2022-08-19T07:26:52;100639.78;;;19.84;60.79
55301;BME280;58302;51.446;-2.000;2022-08-19T07:29:20;100639.63;;;19.89;60.63
55301;BME280;58302;51.446;-2.000;2022-08-19T07:31:49;100642.38;;;19.80;60.65
55301;BME280;58302;51.446;-2.000;2022-08-19T07:34:16;100652.28;;;20.07;60.63
55301;BME280;58302;51.446;-2.000;2022-08-19T07:36:42;100636.16;;;20.70;58.67
55301;BME280;58302;51.446;-2.000;2022-08-19T07:39:14;100646.53;;;20.82;56.00
55301;BME280;58302;51.446;-2.000;2022-08-19T07:41:41;100640.59;;;20.62;56.57
55301;BME280;58302;51.446;-2.000;2022-08-19T07:44:08;100634.91;;;20.59;55.88
55301;BME280;58302;51.446;-2.000;2022-08-19T07:46:36;100638.16;;;20.35;57.29
55301;BME280;58302;51.446;-2.000;2022-08-19T07:49:04;100638.63;;;20.54;57.61
55301;BME280;58302;51.446;-2.000;2022-08-19T07:51:31;100638.88;;;20.96;56.67
55301;BME280;58302;51.446;-2.000;2022-08-19T07:53:57;100635.47;;;20.99;53.04
55301;BME280;58302;51.446;-2.000;2022-08-19T07:56:23;100649.97;;;21.34;52.20
55301;BME280;58302;51.446;-2.000;2022-08-19T07:58:51;100654.78;;;21.46;49.89
55301;BME280;58302;51.446;-2.000;2022-08-19T08:01:23;100652.19;;;21.41;49.55
55301;BME280;58302;51.446;-2.000;2022-08-19T08:03:51;100659.91;;;21.26;48.74
55301;BME280;58302;51.446;-2.000;2022-08-19T08:06:37;100657.63;;;21.20;48.02
55301;BME280;58302;51.446;-2.000;2022-08-19T08:09:42;100660.34;;;21.37;47.82
55301;BME280;58302;51.446;-2.000;2022-08-19T08:12:12;100659.16;;;21.76;46.32
55301;BME280;58302;51.446;-2.000;2022-08-19T08:17:10;100655.66;;;21.58;47.37
55301;BME280;58302;51.446;-2.000;2022-08-19T08:19:37;100662.22;;;21.16;46.42
55301;BME280;58302;51.446;-2.000;2022-08-19T08:22:03;100660.97;;;20.96;47.14
55301;BME280;58302;51.446;-2.000;2022-08-19T08:24:36;100669.09;;;21.01;47.79
55301;BME280;58302;51.446;-2.000;2022-08-19T08:27:02;100664.59;;;21.35;45.34
55301;BME280;58302;51.446;-2.000;2022-08-19T08:29:30;100674.22;;;21.20;45.36
55301;BME280;58302;51.446;-2.000;2022-08-19T08:31:57;100677.53;;;21.04;45.38
55301;BME280;58302;51.446;-2.000;2022-08-19T08:34:23;100686.47;;;21.10;46.05
55301;BME280;58302;51.446;-2.000;2022-08-19T08:36:51;100687.22;;;21.66;45.79
55301;BME280;58302;51.446;-2.000;2022-08-19T08:39:21;100695.00;;;21.94;44.14
55301;BME280;58302;51.446;-2.000;2022-08-19T08:47:13;100697.34;;;21.07;44.40
55301;BME280;58302;51.446;-2.000;2022-08-19T08:50:06;100695.63;;;21.99;42.40
55301;BME280;58302;51.446;-2.000;2022-08-19T08:52:45;100699.91;;;22.18;40.57
55301;BME280;58302;51.446;-2.000;2022-08-19T08:55:16;100703.97;;;21.91;41.17
55301;BME280;58302;51.446;-2.000;2022-08-19T09:00:25;100708.03;;;22.44;39.26
55301;BME280;58302;51.446;-2.000;2022-08-19T09:02:53;100704.28;;;21.98;39.32
55301;BME280;58302;51.446;-2.000;2022-08-19T09:05:20;100712.16;;;22.08;40.36
55301;BME280;58302;51.446;-2.000;2022-08-19T09:08:00;100705.25;;;22.44;38.27
55301;BME280;58302;51.446;-2.000;2022-08-19T09:10:38;100705.50;;;22.30;39.08
55301;BME280;58302;51.446;-2.000;2022-08-19T09:16:10;100715.56;;;23.09;38.70
55301;BME280;58302;51.446;-2.000;2022-08-19T09:21:07;100709.91;;;22.85;36.80
55301;BME280;58302;51.446;-2.000;2022-08-19T09:23:36;100711.66;;;21.85;39.31
55301;BME280;58302;51.446;-2.000;2022-08-19T09:26:07;100711.75;;;22.27;38.26
55301;BME280;58302;51.446;-2.000;2022-08-19T09:28:33;100717.31;;;22.60;37.67
55301;BME280;58302;51.446;-2.000;2022-08-19T09:30:59;100709.28;;;22.46;36.79
55301;BME280;58302;51.446;-2.000;2022-08-19T09:33:26;100709.44;;;22.50;36.97
55301;BME280;58302;51.446;-2.000;2022-08-19T09:36:06;100712.41;;;22.45;37.34
55301;BME280;58302;51.446;-2.000;2022-08-19T09:38:34;100709.97;;;22.43;36.96
55301;BME280;58302;51.446;-2.000;2022-08-19T09:41:12;100713.06;;;22.62;36.84
55301;BME280;58302;51.446;-2.000;2022-08-19T09:43:40;100709.56;;;22.53;36.88
55301;BME280;58302;51.446;-2.000;2022-08-19T09:46:08;100714.50;;;22.48;37.70
55301;BME280;58302;51.446;-2.000;2022-08-19T09:48:39;100711.03;;;22.30;37.23
55301;BME280;58302;51.446;-2.000;2022-08-19T09:51:08;100711.44;;;21.99;38.43
55301;BME280;58302;51.446;-2.000;2022-08-19T09:53:35;100696.97;;;22.56;37.45
55301;BME280;58302;51.446;-2.000;2022-08-19T09:56:02;100705.84;;;23.03;36.20
55301;BME280;58302;51.446;-2.000;2022-08-19T09:58:28;100707.22;;;22.76;36.70
55301;BME280;58302;51.446;-2.000;2022-08-19T10:00:57;100708.78;;;22.86;36.25
55301;BME280;58302;51.446;-2.000;2022-08-19T10:03:25;100711.94;;;22.97;36.29
55301;BME280;58302;51.446;-2.000;2022-08-19T10:05:52;100707.03;;;23.39;34.95
55301;BME280;58302;51.446;-2.000;2022-08-19T10:08:21;100702.78;;;23.90;33.80
55301;BME280;58302;51.446;-2.000;2022-08-19T10:10:49;100704.41;;;24.44;33.42
55301;BME280;58302;51.446;-2.000;2022-08-19T10:13:19;100718.16;;;23.88;33.94
55301;BME280;58302;51.446;-2.000;2022-08-19T10:15:49;100723.31;;;23.28;34.87
55301;BME280;58302;51.446;-2.000;2022-08-19T10:18:20;100722.09;;;22.93;35.05
55301;BME280;58302;51.446;-2.000;2022-08-19T10:20:48;100713.38;;;23.27;34.72
55301;BME280;58302;51.446;-2.000;2022-08-19T10:23:17;100710.66;;;23.76;34.74
55301;BME280;58302;51.446;-2.000;2022-08-19T10:25:43;100712.03;;;24.07;33.63
55301;BME280;58302;51.446;-2.000;2022-08-19T10:28:09;100712.63;;;24.28;33.48
55301;BME280;58302;51.446;-2.000;2022-08-19T10:30:39;100726.09;;;24.26;32.95
55301;BME280;58302;51.446;-2.000;2022-08-19T10:33:05;100717.81;;;23.77;34.03
55301;BME280;58302;51.446;-2.000;2022-08-19T10:35:32;100720.09;;;24.24;33.18
55301;BME280;58302;51.446;-2.000;2022-08-19T10:37:58;100715.13;;;24.58;32.28
55301;BME280;58302;51.446;-2.000;2022-08-19T10:40:26;100715.47;;;24.84;32.60
55301;BME280;58302;51.446;-2.000;2022-08-19T10:42:53;100717.16;;;24.33;33.08
55301;BME280;58302;51.446;-2.000;2022-08-19T10:45:21;100710.41;;;23.93;33.96
55301;BME280;58302;51.446;-2.000;2022-08-19T10:47:50;100710.63;;;24.01;33.71
55301;BME280;58302;51.446;-2.000;2022-08-19T10:50:16;100709.63;;;24.46;33.33
55301;BME280;58302;51.446;-2.000;2022-08-19T10:53:07;100711.38;;;24.66;33.25
55301;BME280;58302;51.446;-2.000;2022-08-19T10:55:36;100702.97;;;24.10;33.86
55301;BME280;58302;51.446;-2.000;2022-08-19T10:58:21;100721.91;;;23.10;36.08
55301;BME280;58302;51.446;-2.000;2022-08-19T11:00:56;100723.38;;;23.77;35.78
55301;BME280;58302;51.446;-2.000;2022-08-19T11:03:23;100721.31;;;24.39;34.04
55301;BME280;58302;51.446;-2.000;2022-08-19T11:06:04;100707.91;;;24.41;34.78
55301;BME280;58302;51.446;-2.000;2022-08-19T11:08:30;100719.41;;;24.15;35.37
55301;BME280;58302;51.446;-2.000;2022-08-19T11:10:59;100710.22;;;23.74;35.82
55301;BME280;58302;51.446;-2.000;2022-08-19T11:13:28;100719.44;;;23.42;37.01
55301;BME280;58302;51.446;-2.000;2022-08-19T11:16:05;100715.53;;;22.97;38.25
55301;BME280;58302;51.446;-2.000;2022-08-19T11:18:35;100722.91;;;22.93;37.82
55301;BME280;58302;51.446;-2.000;2022-08-19T11:21:15;100726.13;;;22.95;38.39
55301;BME280;58302;51.446;-2.000;2022-08-19T11:23:43;100718.31;;;22.76;37.93
55301;BME280;58302;51.446;-2.000;2022-08-19T11:26:10;100723.13;;;22.88;38.71
55301;BME280;58302;51.446;-2.000;2022-08-19T11:28:36;100709.72;;;23.48;37.82
55301;BME280;58302;51.446;-2.000;2022-08-19T11:31:02;100716.66;;;24.03;36.84
55301;BME280;58302;51.446;-2.000;2022-08-19T11:33:30;100716.31;;;24.57;35.98
55301;BME280;58302;51.446;-2.000;2022-08-19T11:35:58;100724.53;;;25.25;34.89
55301;BME280;58302;51.446;-2.000;2022-08-19T11:38:25;100718.16;;;25.09;34.00
55301;BME280;58302;51.446;-2.000;2022-08-19T11:40:57;100723.94;;;25.04;34.31
55301;BME280;58302;51.446;-2.000;2022-08-19T11:43:23;100716.47;;;25.36;33.77
55301;BME280;58302;51.446;-2.000;2022-08-19T11:45:55;100722.03;;;24.92;34.40
55301;BME280;58302;51.446;-2.000;2022-08-19T11:48:24;100717.56;;;25.03;34.51
55301;BME280;58302;51.446;-2.000;2022-08-19T11:50:52;100710.78;;;25.32;34.04
55301;BME280;58302;51.446;-2.000;2022-08-19T11:53:21;100715.47;;;25.60;33.86
55301;BME280;58302;51.446;-2.000;2022-08-19T11:55:47;100720.53;;;26.05;32.96
55301;BME280;58302;51.446;-2.000;2022-08-19T11:58:15;100729.75;;;25.74;32.84
55301;BME280;58302;51.446;-2.000;2022-08-19T12:00:43;100721.03;;;25.60;33.00
55301;BME280;58302;51.446;-2.000;2022-08-19T12:03:14;100710.09;;;25.51;33.86
55301;BME280;58302;51.446;-2.000;2022-08-19T12:05:41;100718.59;;;24.83;34.63
55301;BME280;58302;51.446;-2.000;2022-08-19T12:08:08;100712.81;;;25.04;34.92
55301;BME280;58302;51.446;-2.000;2022-08-19T12:10:34;100715.94;;;26.13;33.76
55301;BME280;58302;51.446;-2.000;2022-08-19T12:13:01;100711.72;;;26.03;32.57
55301;BME280;58302;51.446;-2.000;2022-08-19T12:15:27;100719.53;;;25.78;33.73
55301;BME280;58302;51.446;-2.000;2022-08-19T12:17:57;100708.84;;;25.17;33.70
55301;BME280;58302;51.446;-2.000;2022-08-19T12:20:24;100717.00;;;24.54;35.45
55301;BME280;58302;51.446;-2.000;2022-08-19T12:22:50;100719.44;;;23.90;36.75
55301;BME280;58302;51.446;-2.000;2022-08-19T12:25:16;100712.19;;;24.38;36.38
55301;BME280;58302;51.446;-2.000;2022-08-19T12:27:42;100718.53;;;25.39;34.87
55301;BME280;58302;51.446;-2.000;2022-08-19T12:30:11;100723.13;;;25.03;34.53
55301;BME280;58302;51.446;-2.000;2022-08-19T12:32:38;100729.13;;;23.48;37.76
55301;BME280;58302;51.446;-2.000;2022-08-19T12:35:05;100729.84;;;22.78;39.42
55301;BME280;58302;51.446;-2.000;2022-08-19T12:37:31;100722.66;;;22.65;39.97
55301;BME280;58302;51.446;-2.000;2022-08-19T12:39:58;100728.81;;;22.71;40.70
55301;BME280;58302;51.446;-2.000;2022-08-19T12:42:24;100738.75;;;22.51;39.44
55301;BME280;58302;51.446;-2.000;2022-08-19T12:44:50;100739.28;;;22.44;39.53
55301;BME280;58302;51.446;-2.000;2022-08-19T12:47:17;100736.88;;;22.64;39.24
55301;BME280;58302;51.446;-2.000;2022-08-19T12:49:43;100730.06;;;22.73;38.70
55301;BME280;58302;51.446;-2.000;2022-08-19T12:52:12;100735.31;;;22.87;38.67
55301;BME280;58302;51.446;-2.000;2022-08-19T12:54:41;100737.13;;;22.92;39.01
55301;BME280;58302;51.446;-2.000;2022-08-19T12:57:09;100737.38;;;23.11;38.25
55301;BME280;58302;51.446;-2.000;2022-08-19T12:59:36;100722.34;;;23.70;36.16
55301;BME280;58302;51.446;-2.000;2022-08-19T13:02:04;100720.31;;;24.19;35.47
55301;BME280;58302;51.446;-2.000;2022-08-19T13:04:32;100717.72;;;24.79;33.16